createdAt,value
2023-05-15T00:03:27.146Z,10.90
2023-05-15T00:05:58.047Z,12.30
2023-05-15T00:08:30.988Z,11.40
2023-05-15T00:11:02.311Z,13.05
2023-05-15T00:13:33.020Z,14.27
2023-05-15T00:16:03.401Z,13.73
2023-05-15T00:18:33.881Z,13.23
2023-05-15T00:21:04.235Z,12.30
2023-05-15T00:23:37.254Z,13.90
2023-05-15T00:26:07.511Z,11.98
2023-05-15T00:28:37.908Z,11.40
2023-05-15T00:31:09.025Z,11.13
2023-05-15T00:33:39.391Z,12.23
2023-05-15T00:36:10.378Z,12.32
2023-05-15T00:41:13.962Z,9.45
2023-05-15T00:43:45.181Z,10.75
2023-05-15T00:46:16.605Z,11.25
2023-05-15T00:48:47.345Z,11.88
2023-05-15T00:51:17.710Z,11.38
2023-05-15T00:53:48.150Z,10.88
2023-05-15T00:56:21.853Z,11.70
2023-05-15T00:58:52.708Z,13.77
2023-05-15T01:01:23.092Z,11.20
2023-05-15T01:03:53.464Z,11.45
2023-05-15T01:06:23.819Z,12.00
2023-05-15T01:08:54.819Z,10.35
2023-05-15T01:13:57.894Z,10.77
2023-05-15T01:16:28.172Z,11.85
2023-05-15T01:18:58.615Z,12.98
2023-05-15T01:21:42.644Z,13.50
2023-05-15T01:24:18.880Z,11.57
2023-05-15T01:27:13.489Z,13.48
2023-05-15T01:29:48.711Z,12.43
2023-05-15T01:32:22.980Z,12.57
2023-05-15T01:34:57.517Z,11.80
2023-05-15T01:37:28.866Z,12.05
2023-05-15T01:40:01.908Z,12.07
2023-05-15T01:42:37.086Z,14.25
2023-05-15T01:45:13.025Z,14.10
2023-05-15T01:47:44.964Z,13.50
2023-05-15T01:50:17.189Z,14.10
2023-05-15T01:52:50.283Z,14.95
2023-05-15T01:55:21.558Z,15.35
2023-05-15T01:57:52.784Z,13.63
2023-05-15T02:00:26.060Z,12.88
2023-05-15T02:02:56.917Z,12.27
2023-05-15T02:05:27.673Z,13.23
2023-05-15T02:07:58.529Z,12.88
2023-05-15T02:10:29.803Z,12.68
2023-05-15T02:13:00.246Z,14.60
2023-05-15T02:15:33.435Z,12.35
2023-05-15T02:18:03.835Z,13.00
2023-05-15T02:20:34.191Z,14.82
2023-05-15T02:23:04.526Z,13.45
2023-05-15T02:25:38.631Z,13.60
2023-05-15T02:28:10.218Z,14.13
2023-05-15T02:30:47.088Z,12.68
2023-05-15T02:33:21.009Z,13.40
2023-05-15T02:35:52.740Z,13.07
2023-05-15T02:38:26.998Z,14.20
2023-05-15T02:40:59.193Z,14.25
2023-05-15T02:43:30.206Z,14.45
2023-05-15T02:48:33.376Z,15.27
2023-05-15T02:51:03.841Z,13.70
2023-05-15T02:53:34.511Z,14.63
2023-05-15T02:56:04.932Z,15.23
2023-05-15T02:58:35.266Z,14.90
2023-05-15T03:01:05.980Z,13.57
2023-05-15T03:03:38.890Z,15.77
2023-05-15T03:06:09.510Z,15.10
2023-05-15T03:08:39.832Z,14.57
2023-05-15T03:11:10.155Z,14.15
2023-05-15T03:13:40.505Z,14.93
2023-05-15T03:16:13.701Z,13.70
2023-05-15T03:18:46.651Z,13.85
2023-05-15T03:21:17.868Z,14.77
2023-05-15T03:23:48.217Z,19.50
2023-05-15T03:26:18.642Z,14.55
2023-05-15T03:28:48.951Z,15.25
2023-05-15T03:31:19.375Z,14.35
2023-05-15T03:33:52.855Z,13.68
2023-05-15T03:36:23.255Z,16.00
2023-05-15T03:38:53.582Z,16.27
2023-05-15T03:41:26.324Z,15.38
2023-05-15T03:43:56.644Z,16.73
2023-05-15T03:46:27.019Z,16.15
2023-05-15T03:49:00.006Z,15.70
2023-05-15T03:51:30.545Z,18.00
2023-05-15T03:54:00.941Z,17.40
2023-05-15T03:56:31.288Z,16.60
2023-05-15T03:59:02.097Z,18.27
2023-05-15T04:01:32.456Z,17.45
2023-05-15T04:04:05.385Z,21.98
2023-05-15T04:06:35.739Z,17.80
2023-05-15T04:09:06.076Z,17.70
2023-05-15T04:11:36.968Z,16.77
2023-05-15T04:14:07.285Z,15.93
2023-05-15T04:16:37.809Z,15.73
2023-05-15T04:19:10.794Z,20.05
2023-05-15T04:21:41.213Z,20.10
2023-05-15T04:24:11.824Z,21.85
2023-05-15T04:26:42.498Z,21.35
2023-05-15T04:29:13.163Z,18.23
2023-05-15T04:31:43.635Z,17.95
2023-05-15T04:34:17.206Z,17.75
2023-05-15T04:36:47.610Z,19.08
2023-05-15T04:39:17.903Z,19.20
2023-05-15T04:41:48.393Z,19.42
2023-05-15T04:44:18.717Z,19.48
2023-05-15T04:46:49.138Z,16.33
2023-05-15T04:49:22.054Z,17.27
2023-05-15T04:51:55.170Z,18.15
2023-05-15T04:54:25.554Z,18.58
2023-05-15T04:56:55.891Z,16.52
2023-05-15T04:59:27.763Z,15.73
2023-05-15T05:01:58.222Z,18.27
2023-05-15T05:04:31.307Z,18.45
2023-05-15T05:07:04.541Z,16.23
2023-05-15T05:09:35.049Z,16.17
2023-05-15T05:12:05.473Z,16.65
2023-05-15T05:14:35.802Z,17.75
2023-05-15T05:17:06.297Z,17.13
2023-05-15T05:19:39.229Z,17.25
2023-05-15T05:22:09.868Z,18.02
2023-05-15T05:24:40.294Z,17.90
2023-05-15T05:27:10.670Z,19.40
2023-05-15T05:29:41.060Z,18.65
2023-05-15T05:32:11.448Z,18.42
2023-05-15T05:34:44.444Z,19.05
2023-05-15T05:37:15.050Z,22.45
2023-05-15T05:39:45.378Z,21.20
2023-05-15T05:42:15.735Z,19.65
2023-05-15T05:44:46.056Z,18.35
2023-05-15T05:47:16.733Z,18.17
2023-05-15T05:49:49.808Z,20.35
2023-05-15T05:52:20.250Z,20.08
2023-05-15T05:54:50.555Z,17.98
2023-05-15T05:57:21.034Z,17.05
2023-05-15T05:59:51.366Z,15.05
2023-05-15T06:02:21.934Z,15.52
2023-05-15T06:04:54.941Z,16.10
2023-05-15T06:07:25.703Z,15.00
2023-05-15T06:09:56.024Z,16.13
2023-05-15T06:12:26.350Z,15.30
2023-05-15T06:14:56.683Z,15.15
2023-05-15T06:17:27.123Z,15.13
2023-05-15T06:20:00.054Z,15.77
2023-05-15T06:22:32.587Z,15.13
2023-05-15T06:25:03.115Z,12.55
2023-05-15T06:27:33.490Z,13.50
2023-05-15T06:30:03.826Z,14.23
2023-05-15T06:32:34.626Z,13.77
2023-05-15T06:35:07.937Z,14.05
2023-05-15T06:37:38.332Z,12.80
2023-05-15T06:40:09.466Z,14.48
2023-05-15T06:42:39.803Z,12.57
2023-05-15T06:45:10.893Z,13.05
2023-05-15T06:47:41.620Z,14.23
2023-05-15T06:50:14.800Z,14.10
2023-05-15T06:52:45.156Z,15.13
2023-05-15T06:55:15.468Z,15.27
2023-05-15T06:57:45.871Z,15.57
2023-05-15T07:00:17.098Z,16.35
2023-05-15T07:02:47.806Z,16.60
2023-05-15T07:05:22.012Z,15.13
2023-05-15T07:07:52.509Z,15.60
2023-05-15T07:10:23.197Z,16.17
2023-05-15T07:12:53.677Z,15.10
2023-05-15T07:15:24.245Z,16.55
2023-05-15T07:17:54.659Z,14.93
2023-05-15T07:20:30.328Z,16.15
2023-05-15T07:23:02.694Z,15.32
2023-05-15T07:25:33.111Z,16.25
2023-05-15T07:28:03.471Z,15.23
2023-05-15T07:30:33.786Z,15.98
2023-05-15T07:33:04.207Z,15.77
2023-05-15T07:35:37.133Z,15.57
2023-05-15T07:38:07.669Z,15.27
2023-05-15T07:40:38.751Z,15.63
2023-05-15T07:43:09.107Z,15.00
2023-05-15T07:45:39.590Z,16.02
2023-05-15T07:48:20.133Z,17.13
2023-05-15T07:50:53.998Z,15.95
2023-05-15T07:53:24.836Z,15.65
2023-05-15T07:55:55.610Z,15.43
2023-05-15T07:58:26.340Z,16.05
2023-05-15T08:00:56.652Z,16.63
2023-05-15T08:03:27.150Z,16.52
2023-05-15T08:06:00.273Z,17.30
2023-05-15T08:08:31.083Z,16.98
2023-05-15T08:13:31.772Z,15.77
2023-05-15T08:16:02.101Z,17.90
2023-05-15T08:18:32.518Z,17.92
2023-05-15T08:21:05.536Z,16.95
2023-05-15T08:23:35.934Z,16.00
2023-05-15T08:26:06.292Z,16.10
2023-05-15T08:28:36.877Z,15.57
2023-05-15T08:31:07.326Z,17.20
2023-05-15T08:33:37.687Z,16.55
2023-05-15T08:36:11.205Z,15.10
2023-05-15T08:38:41.595Z,15.82
2023-05-15T08:41:14.754Z,15.18
2023-05-15T08:43:45.948Z,16.25
2023-05-15T08:46:16.609Z,16.98
2023-05-15T08:48:47.642Z,15.63
2023-05-15T08:51:20.681Z,16.48
2023-05-15T08:53:51.808Z,16.48
2023-05-15T08:56:22.195Z,15.85
2023-05-15T08:58:52.856Z,16.98
2023-05-15T09:01:23.282Z,16.75
2023-05-15T09:03:53.668Z,16.88
2023-05-15T09:06:26.814Z,16.98
2023-05-15T09:09:01.079Z,15.85
2023-05-15T09:11:32.214Z,16.17
2023-05-15T09:14:03.407Z,16.88
2023-05-15T09:16:33.738Z,16.65
2023-05-15T09:19:04.236Z,14.75
2023-05-15T09:21:37.584Z,15.32
2023-05-15T09:24:21.855Z,16.88
2023-05-15T09:27:04.863Z,15.00
2023-05-15T09:29:35.630Z,14.63
2023-05-15T09:32:06.837Z,15.48
2023-05-15T09:34:38.261Z,16.60
2023-05-15T09:37:12.415Z,16.20
2023-05-15T09:39:44.995Z,14.73
2023-05-15T09:42:15.855Z,16.05
2023-05-15T09:47:17.690Z,14.60
2023-05-15T09:49:48.824Z,16.58
2023-05-15T09:52:23.389Z,14.77
2023-05-15T09:54:54.175Z,16.48
2023-05-15T09:57:26.394Z,16.60
2023-05-15T09:59:57.553Z,16.13
2023-05-15T10:02:32.229Z,18.15
2023-05-15T10:05:03.123Z,18.13
2023-05-15T10:07:36.678Z,18.27
2023-05-15T10:10:07.882Z,17.00
2023-05-15T10:12:39.111Z,17.13
2023-05-15T10:15:10.228Z,18.67
2023-05-15T10:17:40.628Z,20.38
2023-05-15T10:20:11.821Z,18.27
2023-05-15T10:22:45.352Z,17.67
2023-05-15T10:25:19.689Z,19.77
2023-05-15T10:27:50.332Z,18.80
2023-05-15T10:30:21.055Z,18.27
2023-05-15T10:32:52.431Z,20.13
2023-05-15T10:35:23.040Z,18.60
2023-05-15T10:37:56.235Z,19.50
2023-05-15T10:40:27.542Z,19.58
2023-05-15T10:42:58.467Z,18.88
2023-05-15T10:45:29.117Z,20.42
2023-05-15T10:47:59.630Z,19.73
2023-05-15T10:50:30.758Z,20.38
2023-05-15T10:53:04.147Z,20.75
2023-05-15T10:55:34.642Z,20.92
2023-05-15T10:58:04.982Z,23.23
2023-05-15T11:00:35.335Z,23.88
2023-05-15T11:03:05.654Z,22.27
2023-05-15T11:05:56.191Z,23.40
2023-05-15T11:08:31.989Z,23.08
2023-05-15T11:11:02.401Z,20.38
2023-05-15T11:13:59.260Z,21.75
2023-05-15T11:16:57.817Z,20.42
2023-05-15T11:19:28.784Z,20.05
2023-05-15T11:22:00.677Z,30.65
2023-05-15T11:24:34.683Z,15.77
2023-05-15T11:27:05.530Z,16.33
2023-05-15T11:32:06.437Z,13.55
2023-05-15T11:34:37.034Z,15.52
2023-05-15T11:37:13.451Z,13.68
2023-05-15T11:39:47.763Z,13.35
2023-05-15T11:42:18.441Z,15.32
2023-05-15T11:44:49.909Z,14.73
2023-05-15T11:47:20.291Z,13.48
2023-05-15T11:49:51.910Z,12.90
2023-05-15T11:52:22.327Z,12.82
2023-05-15T11:54:55.270Z,14.25
2023-05-15T11:57:26.665Z,13.63
2023-05-15T11:59:58.220Z,15.00
2023-05-15T12:02:28.562Z,14.70
2023-05-15T12:04:58.920Z,13.57
2023-05-15T12:07:29.431Z,13.40
2023-05-15T12:10:02.392Z,13.48
2023-05-15T12:12:32.989Z,13.30
2023-05-15T12:15:05.858Z,12.02
2023-05-15T12:17:36.312Z,11.35
2023-05-15T12:20:07.182Z,10.60
2023-05-15T12:25:11.554Z,8.77
2023-05-15T12:27:42.381Z,6.60
2023-05-15T12:30:13.910Z,8.02
2023-05-15T12:32:45.115Z,7.95
2023-05-15T12:35:15.512Z,7.60
2023-05-15T12:37:46.040Z,6.90
2023-05-15T12:40:23.797Z,7.15
2023-05-15T12:42:57.702Z,7.72
2023-05-15T12:45:28.486Z,7.90
2023-05-15T12:48:02.207Z,7.43
2023-05-15T12:50:32.669Z,6.90
2023-05-15T12:53:04.820Z,8.43
2023-05-15T12:55:38.471Z,6.00
2023-05-15T12:58:09.501Z,6.32
2023-05-15T13:00:40.757Z,6.53
2023-05-15T13:03:12.690Z,6.88
2023-05-15T13:05:43.572Z,7.43
2023-05-15T13:08:18.209Z,6.63
2023-05-15T13:10:51.366Z,6.53
2023-05-15T13:13:24.654Z,6.70
2023-05-15T13:15:54.982Z,7.47
2023-05-15T13:18:25.648Z,5.80
2023-05-15T13:20:57.259Z,6.45
2023-05-15T13:23:27.597Z,6.57
2023-05-15T13:26:00.560Z,5.57
2023-05-15T13:28:30.928Z,5.68
2023-05-15T13:31:01.430Z,5.32
2023-05-15T13:33:32.166Z,7.03
2023-05-15T13:36:02.484Z,7.60
2023-05-15T13:38:32.896Z,5.93
2023-05-15T13:41:05.801Z,7.22
2023-05-15T13:43:36.187Z,6.93
2023-05-15T13:46:06.497Z,5.60
2023-05-15T13:48:36.873Z,5.28
2023-05-15T13:51:07.410Z,4.72
2023-05-15T13:53:37.714Z,6.22
2023-05-15T13:56:11.014Z,4.50
2023-05-15T13:58:42.681Z,4.97
2023-05-15T14:01:13.042Z,4.32
2023-05-15T14:03:43.449Z,4.95
2023-05-15T14:06:13.786Z,4.68
2023-05-15T14:08:44.120Z,5.05
2023-05-15T14:11:17.061Z,6.35
2023-05-15T14:13:47.713Z,4.55
2023-05-15T14:16:18.153Z,5.22
2023-05-15T14:18:48.643Z,5.75
2023-05-15T14:21:19.002Z,7.45
2023-05-15T14:23:49.382Z,7.13
2023-05-15T14:26:22.304Z,7.65
2023-05-15T14:28:52.950Z,5.97
2023-05-15T14:31:23.436Z,7.20
2023-05-15T14:33:53.925Z,8.82
2023-05-15T14:36:24.313Z,8.70
2023-05-15T14:38:54.690Z,7.15
2023-05-15T14:41:27.610Z,5.97
2023-05-15T14:43:58.002Z,7.43
2023-05-15T14:46:28.450Z,6.93
2023-05-15T14:48:58.863Z,7.40
2023-05-15T14:51:29.194Z,7.03
2023-05-15T14:53:59.772Z,6.28
2023-05-15T14:56:32.738Z,7.35
2023-05-15T14:59:03.251Z,8.23
2023-05-15T15:01:33.686Z,7.78
2023-05-15T15:04:04.200Z,7.53
2023-05-15T15:06:34.883Z,5.97
2023-05-15T15:09:07.582Z,5.07
2023-05-15T15:11:40.519Z,6.30
2023-05-15T15:14:10.906Z,6.43
2023-05-15T15:16:41.641Z,7.03
2023-05-15T15:19:12.122Z,5.03
2023-05-15T15:21:42.532Z,6.22
2023-05-15T15:24:12.888Z,5.75
2023-05-15T15:26:45.822Z,4.50
2023-05-15T15:29:16.158Z,5.35
2023-05-15T15:31:46.538Z,6.30
2023-05-15T15:34:17.437Z,5.32
2023-05-15T15:36:47.740Z,5.82
2023-05-15T15:39:18.094Z,5.78
2023-05-15T15:41:51.028Z,5.82
2023-05-15T15:44:21.522Z,6.28
2023-05-15T15:46:51.838Z,5.57
2023-05-15T15:49:22.367Z,6.03
2023-05-15T15:51:52.802Z,6.15
2023-05-15T15:54:23.147Z,5.95
2023-05-15T15:56:56.312Z,6.13
2023-05-15T15:59:26.642Z,6.03
2023-05-15T16:01:56.991Z,7.43
2023-05-15T16:04:27.347Z,7.30
2023-05-15T16:06:57.699Z,6.53
2023-05-15T16:09:28.149Z,7.18
2023-05-15T16:12:01.125Z,6.63
2023-05-15T16:14:31.977Z,8.93
2023-05-15T16:17:03.859Z,7.65
2023-05-15T16:19:36.691Z,6.32
2023-05-15T16:22:07.128Z,6.85
2023-05-15T16:24:38.152Z,5.57
2023-05-15T16:29:41.191Z,4.45
2023-05-15T16:32:12.169Z,7.90
2023-05-15T16:37:12.654Z,4.53
2023-05-15T16:39:43.167Z,5.85
2023-05-15T16:42:13.534Z,6.40
2023-05-15T16:44:46.504Z,8.48
2023-05-15T16:47:16.821Z,5.50
2023-05-15T16:49:49.791Z,8.50
2023-05-15T16:52:20.544Z,5.88
2023-05-15T16:54:50.936Z,7.13
2023-05-15T16:57:24.322Z,6.32
2023-05-15T16:59:57.333Z,6.85
2023-05-15T17:02:27.816Z,7.80
2023-05-15T17:04:58.212Z,6.30
2023-05-15T17:07:28.568Z,10.32
2023-05-15T17:09:59.086Z,7.70
2023-05-15T17:12:29.394Z,7.78
2023-05-15T17:15:02.348Z,6.30
2023-05-15T17:17:32.723Z,5.95
2023-05-15T17:20:03.417Z,6.38
2023-05-15T17:22:33.883Z,9.05
2023-05-15T17:25:04.371Z,7.63
2023-05-15T17:27:36.074Z,6.90
2023-05-15T17:30:09.622Z,6.95
2023-05-15T17:32:40.259Z,6.20
2023-05-15T17:35:11.270Z,6.90
2023-05-15T17:40:12.231Z,4.50
2023-05-15T17:42:42.544Z,4.93
2023-05-15T17:45:15.783Z,6.53
2023-05-15T17:47:46.202Z,6.53
2023-05-15T17:50:16.606Z,6.78
2023-05-15T17:52:47.049Z,6.18
2023-05-15T17:55:17.443Z,7.22
2023-05-15T17:57:49.854Z,6.72
2023-05-15T18:00:23.665Z,7.18
2023-05-15T18:02:54.286Z,6.78
2023-05-15T18:05:25.084Z,5.38
2023-05-15T18:07:58.197Z,5.40
2023-05-15T18:10:28.715Z,5.82
2023-05-15T18:12:59.079Z,5.22
2023-05-15T18:15:33.180Z,5.05
2023-05-15T18:18:03.869Z,4.93
2023-05-15T18:20:34.311Z,5.03
2023-05-15T18:23:04.637Z,4.75
2023-05-15T18:25:37.072Z,4.05
2023-05-15T18:28:07.495Z,5.97
2023-05-15T18:30:40.458Z,3.78
2023-05-15T18:33:10.922Z,3.60
2023-05-15T18:35:41.275Z,3.83
2023-05-15T18:38:11.556Z,4.00
2023-05-15T18:40:41.914Z,3.78
2023-05-15T18:43:12.265Z,4.45
2023-05-15T18:45:45.320Z,4.88
2023-05-15T18:48:15.769Z,3.45
2023-05-15T18:50:46.383Z,3.00
2023-05-15T18:53:16.706Z,3.70
2023-05-15T18:55:47.065Z,2.78
2023-05-15T18:58:17.391Z,3.15
2023-05-15T19:00:50.410Z,3.72
2023-05-15T19:03:21.028Z,2.97
2023-05-15T19:05:52.339Z,3.95
2023-05-15T19:08:22.742Z,3.08
2023-05-15T19:10:54.433Z,2.70
2023-05-15T19:13:24.806Z,3.70
2023-05-15T19:15:57.803Z,3.28
2023-05-15T19:18:28.150Z,3.60
2023-05-15T19:20:58.613Z,3.53
2023-05-15T19:23:28.882Z,3.08
2023-05-15T19:25:59.223Z,8.48
2023-05-15T19:28:29.595Z,3.28
2023-05-15T19:31:02.532Z,2.80
2023-05-15T19:33:33.162Z,3.10
2023-05-15T19:36:03.623Z,3.13
2023-05-15T19:38:33.833Z,3.60
2023-05-15T19:41:04.409Z,3.72
2023-05-15T19:43:37.598Z,4.05
2023-05-15T19:46:10.594Z,2.63
2023-05-15T19:48:40.894Z,3.60
2023-05-15T19:51:11.118Z,2.88
2023-05-15T19:53:41.529Z,5.10
2023-05-15T19:56:13.231Z,3.38
2023-05-15T19:58:43.510Z,2.95
2023-05-15T20:01:16.403Z,2.83
2023-05-15T20:03:46.667Z,3.65
2023-05-15T20:06:17.132Z,6.50
2023-05-15T20:08:47.473Z,4.05
2023-05-15T20:11:17.604Z,2.80
2023-05-15T20:13:47.944Z,2.53
2023-05-15T20:16:22.110Z,4.35
2023-05-15T20:18:54.812Z,3.53
2023-05-15T20:21:24.962Z,3.47
2023-05-15T20:23:55.084Z,3.22
2023-05-15T20:26:25.215Z,3.75
2023-05-15T20:28:55.528Z,3.40
2023-05-15T20:31:28.439Z,3.67
2023-05-15T20:34:00.350Z,3.25
2023-05-15T20:36:32.824Z,2.45
2023-05-15T20:39:06.329Z,2.58
2023-05-15T20:41:37.349Z,2.67
2023-05-15T20:44:07.471Z,3.05
2023-05-15T20:46:42.868Z,3.88
2023-05-15T20:49:13.169Z,2.42
2023-05-15T20:51:44.852Z,2.83
2023-05-15T20:54:14.996Z,3.17
2023-05-15T20:56:45.135Z,2.17
2023-05-15T20:59:15.634Z,2.67
2023-05-15T21:01:48.688Z,2.45
2023-05-15T21:04:18.868Z,2.13
2023-05-15T21:06:49.075Z,3.30
2023-05-15T21:09:19.557Z,3.15
2023-05-15T21:11:49.836Z,2.17
2023-05-15T21:14:20.102Z,3.20
2023-05-15T21:16:53.156Z,2.15
2023-05-15T21:19:23.570Z,2.42
2023-05-15T21:21:53.767Z,2.13
2023-05-15T21:24:23.882Z,3.45
2023-05-15T21:26:53.990Z,1.98
2023-05-15T21:29:24.110Z,2.03
2023-05-15T21:31:57.393Z,1.95
2023-05-15T21:34:27.676Z,2.58
2023-05-15T21:36:57.866Z,2.75
2023-05-15T21:39:27.926Z,2.38
2023-05-15T21:41:58.349Z,3.35
2023-05-15T21:44:28.536Z,1.88
2023-05-15T21:47:01.237Z,2.95
2023-05-15T21:49:31.288Z,2.38
2023-05-15T21:52:01.357Z,2.55
2023-05-15T21:54:31.621Z,2.55
2023-05-15T21:57:01.745Z,2.38
2023-05-15T21:59:32.060Z,2.75
2023-05-15T22:02:05.120Z,2.28
2023-05-15T22:04:35.647Z,3.25
2023-05-15T22:07:06.009Z,1.83
2023-05-15T22:09:36.232Z,2.97
2023-05-15T22:12:06.774Z,2.83
2023-05-15T22:14:39.597Z,2.35
2023-05-15T22:17:17.551Z,2.05
2023-05-15T22:19:48.304Z,2.75
2023-05-15T22:22:18.536Z,2.08
2023-05-15T22:24:48.811Z,2.97
2023-05-15T22:27:19.280Z,2.58
2023-05-15T22:29:49.619Z,2.15
2023-05-15T22:32:22.429Z,2.45
2023-05-15T22:34:52.897Z,2.47
2023-05-15T22:37:23.502Z,2.63
2023-05-15T22:39:53.604Z,2.53
2023-05-15T22:42:24.234Z,3.13
2023-05-15T22:44:55.648Z,2.42
2023-05-15T22:47:29.979Z,2.42
2023-05-15T22:50:00.063Z,2.58
2023-05-15T22:52:30.239Z,2.60
2023-05-15T22:55:00.508Z,2.58
2023-05-15T22:57:30.676Z,3.03
2023-05-15T23:00:00.773Z,2.05
2023-05-15T23:02:33.577Z,2.85
2023-05-15T23:05:04.648Z,2.92
2023-05-15T23:07:35.336Z,2.22
2023-05-15T23:10:05.562Z,2.30
2023-05-15T23:12:35.917Z,3.17
2023-05-15T23:15:06.396Z,2.70
2023-05-15T23:17:39.231Z,2.05
2023-05-15T23:20:13.004Z,2.88
2023-05-15T23:22:43.168Z,2.50
2023-05-15T23:25:13.837Z,2.80
2023-05-15T23:27:43.962Z,2.40
2023-05-15T23:30:15.118Z,2.30
2023-05-15T23:35:17.817Z,2.33
2023-05-15T23:37:48.132Z,2.38
2023-05-15T23:40:18.648Z,3.85
2023-05-15T23:42:49.011Z,3.35
2023-05-15T23:45:19.372Z,2.00
2023-05-15T23:47:52.192Z,2.72
2023-05-15T23:50:23.345Z,3.00
2023-05-15T23:52:53.505Z,2.67
2023-05-15T23:55:23.863Z,2.25
2023-05-15T23:57:54.095Z,2.58
